.
WxDataArchive / Data Records for 2011-08-20
2011-08-19 August 2011 2011-08-21

Data Records for Saturday, 20 August 2011

Time	Temp	Chill	HIndex	Humid	Dewpt	 Wind 	HiWind	WindDir	Rain 	Barom 
-----	----	-----	------	-----	-----	------	------	-------	-----	----- 
00:00	69.9	69.9	69.9	82	64.1	0	0	---	0.00	29.904 
00:05	69.9	69.9	69.9	84	64.8	0	0	---	0.00	29.904 
00:10	69.9	69.9	69.9	84	64.8	0	0	---	0.00	29.904 
00:15	69.8	69.8	69.8	84	64.7	0	0	---	0.00	29.901 
00:20	69.6	69.6	69.6	84	64.5	0	0	---	0.00	29.901 
00:25	69.4	69.4	69.4	84	64.3	0	0	---	0.00	29.901 
00:30	69.3	69.3	69.3	84	64.2	0	0	---	0.00	29.903 
00:35	69.1	69.1	69.1	84	64.1	0	0	---	0.00	29.903 
00:40	68.9	68.9	68.9	84	63.9	0	0	---	0.00	29.903 
00:45	68.8	68.8	68.8	85	64.1	0	0	---	0.00	29.909 
00:50	68.6	68.6	68.6	85	63.9	0	0	---	0.00	29.909 
00:55	68.4	68.4	68.4	86	64.0	0	0	---	0.00	29.909 
01:00	68.3	68.3	68.3	86	63.9	0	0	---	0.00	29.907 
01:05	68.1	68.1	68.1	86	63.7	0	0	---	0.00	29.907 
01:10	67.9	67.9	67.9	87	63.9	0	0	---	0.00	29.907 
01:15	67.8	67.8	67.8	87	63.8	0	0	---	0.00	29.911 
01:20	67.6	67.6	67.6	87	63.6	0	0	---	0.00	29.911 
01:25	67.4	67.4	67.4	87	63.4	0	0	---	0.00	29.911 
01:30	67.3	67.3	67.3	87	63.3	0	0	---	0.00	29.910 
01:35	67.1	67.1	67.1	87	63.1	0	0	---	0.00	29.910 
01:40	67.1	67.1	67.1	87	63.1	0	0	---	0.00	29.910 
01:45	66.9	66.9	66.9	87	62.9	0	0	---	0.00	29.903 
01:50	66.9	66.9	66.9	88	63.2	0	0	---	0.00	29.903 
01:55	66.8	66.8	66.8	88	63.1	0	0	---	0.00	29.903 
02:00	66.9	66.9	66.9	88	63.2	0	0	---	0.00	29.908 
02:05	67.1	67.1	67.1	88	63.4	0	0	---	0.00	29.908 
02:10	67.3	67.3	67.3	87	63.3	0	0	---	0.00	29.908 
02:15	67.3	67.3	67.3	87	63.3	0	0	---	0.00	29.912 
02:20	67.4	67.4	67.4	87	63.4	0	0	---	0.00	29.912 
02:25	67.4	67.4	67.4	87	63.4	0	0	---	0.00	29.912 
02:30	67.4	67.4	67.4	87	63.4	0	0	---	0.00	29.906 
02:35	67.4	67.4	67.4	87	63.4	0	0	---	0.00	29.906 
02:40	67.3	67.3	67.3	87	63.3	0	0	---	0.00	29.906 
02:45	67.1	67.1	67.1	87	63.1	0	0	---	0.00	29.897 
02:50	66.9	66.9	66.9	88	63.2	0	0	---	0.00	29.897 
02:55	66.9	66.9	66.9	88	63.2	0	0	---	0.00	29.897 
03:00	66.8	66.8	66.8	88	63.1	0	0	---	0.00	29.894 
03:05	66.8	66.8	66.8	88	63.1	0	0	---	0.00	29.894 
03:10	66.8	66.8	66.8	89	63.4	0	0	---	0.00	29.894 
03:15	66.6	66.6	66.6	89	63.3	0	0	---	0.00	29.896 
03:20	66.4	66.4	66.4	89	63.1	0	0	---	0.00	29.896 
03:25	66.3	66.3	66.3	89	63.0	0	0	---	0.00	29.896 
03:30	66.3	66.3	66.3	90	63.3	0	0	---	0.00	29.899 
03:35	66.1	66.1	66.1	90	63.1	0	0	---	0.00	29.899 
03:40	66.0	66.0	66.0	90	63.0	0	0	---	0.00	29.899 
03:45	65.8	65.8	65.8	90	62.8	0	0	---	0.00	29.909 
03:50	65.6	65.6	65.6	91	62.9	0	0	---	0.00	29.909 
03:55	65.6	65.6	65.6	91	62.9	0	0	---	0.00	29.909 
04:00	65.5	65.5	65.5	91	62.8	0	0	---	0.00	29.914 
04:05	65.5	65.5	65.5	91	62.8	0	0	---	0.00	29.914 
04:10	65.3	65.3	65.3	91	62.6	0	0	---	0.00	29.914 
04:15	65.3	65.3	65.3	91	62.6	0	0	---	0.00	29.917 
04:20	65.2	65.2	65.2	91	62.5	0	0	---	0.00	29.917 
04:25	65.2	65.2	65.2	91	62.5	0	0	---	0.00	29.917 
04:30	65.0	65.0	65.0	92	62.6	0	0	---	0.00	29.916 
04:35	65.0	65.0	65.0	92	62.6	0	0	---	0.00	29.916 
04:40	65.0	65.0	65.0	92	62.6	0	0	---	0.00	29.916 
04:45	65.0	65.0	65.0	92	62.6	0	0	---	0.00	29.918 
04:50	65.0	65.0	65.0	92	62.6	0	0	---	0.00	29.918 
04:55	64.8	64.8	64.8	92	62.4	0	0	---	0.00	29.918 
05:00	64.8	64.8	64.8	92	62.4	0	0	---	0.00	29.925 
05:05	64.7	64.7	64.7	92	62.3	0	0	---	0.00	29.925 
05:10	64.7	64.7	64.7	92	62.3	0	0	---	0.00	29.925 
05:15	64.7	64.7	64.7	92	62.3	0	0	---	0.00	29.923 
05:20	64.7	64.7	64.7	93	62.6	0	0	---	0.00	29.923 
05:25	64.7	64.7	64.7	93	62.6	0	0	---	0.00	29.923 
05:30	64.7	64.7	64.7	93	62.6	0	0	---	0.00	29.926 
05:35	64.5	64.5	64.5	93	62.4	0	0	---	0.00	29.926 
05:40	64.7	64.7	64.7	93	62.6	0	0	---	0.00	29.926 
05:45	64.7	64.7	64.7	93	62.6	0	0	---	0.00	29.915 
05:50	64.5	64.5	64.5	93	62.4	0	0	---	0.00	29.915 
05:55	64.5	64.5	64.5	93	62.4	0	0	---	0.00	29.915 
06:00	64.5	64.5	64.5	93	62.4	0	0	---	0.00	29.931 
06:05	64.5	64.5	64.5	93	62.4	0	0	---	0.00	29.931 
06:10	64.3	64.3	64.3	93	62.2	0	0	---	0.00	29.931 
06:15	64.3	64.3	64.3	93	62.2	0	0	---	0.00	29.935 
06:20	64.3	64.3	64.3	94	62.5	0	0	---	0.00	29.935 
06:25	64.2	64.2	64.2	94	62.4	0	0	---	0.00	29.935 
06:30	64.2	64.2	64.2	94	62.4	0	0	---	0.00	29.939 
06:35	64.3	64.3	64.3	94	62.5	0	0	---	0.00	29.939 
06:40	64.3	64.3	64.3	94	62.5	0	0	---	0.00	29.939 
06:45	64.2	64.2	64.2	94	62.4	0	0	---	0.00	29.942 
06:50	64.2	64.2	64.2	94	62.4	0	0	---	0.00	29.942 
06:55	64.0	64.0	64.0	94	62.2	0	0	---	0.00	29.942 
07:00	63.9	63.9	63.9	94	62.1	0	0	---	0.00	29.945 
07:05	63.9	63.9	63.9	94	62.1	0	0	---	0.00	29.945 
07:10	63.9	63.9	63.9	94	62.1	0	0	---	0.00	29.945 
07:15	63.9	63.9	63.9	94	62.1	0	0	---	0.00	29.946 
07:20	64.0	64.0	64.0	94	62.2	0	0	---	0.00	29.946 
07:25	64.2	64.2	64.2	94	62.4	0	0	---	0.00	29.946 
07:30	64.3	64.3	64.3	94	62.5	0	0	---	0.00	29.952 
07:35	64.5	64.5	64.5	94	62.7	0	0	---	0.00	29.952 
07:40	64.7	64.7	64.7	95	63.2	0	0	---	0.00	29.952 
07:45	65.0	65.0	65.0	95	63.5	0	0	---	0.00	29.950 
07:50	65.5	65.5	65.5	95	64.0	0	0	---	0.00	29.950 
07:55	65.8	65.8	65.8	95	64.3	0	0	---	0.00	29.950 
08:00	66.1	66.1	66.1	95	64.6	0	0	---	0.00	29.953 
08:05	66.4	66.4	66.4	95	64.9	0	0	---	0.00	29.953 
08:10	66.8	66.8	66.8	95	65.3	0	0	---	0.00	29.953 
08:15	67.3	67.3	67.3	95	65.8	0	0	---	0.00	29.948 
08:20	67.8	67.8	67.8	95	66.3	0	0	---	0.00	29.948 
08:25	68.4	68.4	68.4	95	66.9	0	0	---	0.00	29.948 
08:30	68.9	68.9	68.9	94	67.1	0	0	---	0.00	29.949 
08:35	69.6	69.6	69.6	94	67.8	0	0	---	0.00	29.949 
08:40	70.3	70.3	70.3	93	68.2	0	0	---	0.00	29.949 
08:45	70.9	70.9	70.9	92	68.5	0	0	---	0.00	29.956 
08:50	71.3	71.3	71.3	92	68.8	0	0	---	0.00	29.956 
08:55	71.8	71.8	71.8	91	69.0	0	0	---	0.00	29.956 
09:00	72.1	72.1	72.1	90	69.0	0	0	---	0.00	29.959 
09:05	72.7	72.7	72.7	89	69.3	0	0	---	0.00	29.959 
09:10	73.2	73.2	73.2	88	69.4	0	0	---	0.00	29.959 
09:15	73.7	73.7	73.7	85	68.9	0	0	---	0.00	29.960 
09:20	74.2	74.2	74.2	84	69.0	0	1	68	0.00	29.960 
09:25	74.7	74.7	74.7	82	68.8	0	1	68	0.00	29.960 
09:30	75.3	75.3	75.8	82	69.4	0	0	---	0.00	29.957 
09:35	75.4	75.4	76.0	81	69.1	0	1	68	0.00	29.957 
09:40	75.8	75.8	76.7	80	69.2	0	0	---	0.00	29.957 
09:45	76.0	76.0	77.0	80	69.4	0	0	---	0.00	29.958 
09:50	76.3	76.3	77.5	80	69.7	0	0	---	0.00	29.958 
09:55	76.7	76.7	78.2	78	69.3	0	1	68	0.00	29.958 
10:00	76.7	76.7	78.2	78	69.3	0	0	---	0.00	29.957 
10:05	77.0	77.0	78.6	78	69.6	0	0	---	0.00	29.957 
10:10	77.2	77.2	79.0	77	69.4	0	1	68	0.00	29.957 
10:15	77.4	77.4	79.3	77	69.6	0	1	68	0.00	29.958 
10:20	77.6	77.6	79.6	76	69.4	0	0	---	0.00	29.958 
10:25	77.7	77.7	79.7	75	69.1	0	2	68	0.00	29.958 
10:30	77.6	77.6	79.6	75	69.0	1	2	68	0.00	29.957 
10:35	77.6	77.6	79.6	75	69.0	1	2	270	0.00	29.957 
10:40	77.6	77.6	79.5	73	68.2	1	3	270	0.00	29.957 
10:45	77.6	77.6	79.6	74	68.6	1	3	270	0.00	29.960 
10:50	77.7	77.7	79.7	73	68.3	1	2	270	0.00	29.960 
10:55	78.1	78.1	80.3	73	68.7	0	1	270	0.00	29.960 
11:00	78.5	78.5	80.8	71	68.3	0	2	270	0.00	29.959 
11:05	78.8	78.8	81.1	70	68.2	0	2	270	0.00	29.959 
11:10	79.4	79.4	81.8	68	67.9	0	3	270	0.00	29.959 
11:15	79.4	79.4	81.8	68	67.9	0	1	270	0.00	29.964 
11:20	79.8	79.8	82.4	68	68.3	0	0	---	0.00	29.964 
11:25	80.1	80.1	82.6	66	67.7	2	3	270	0.00	29.964 
11:30	80.3	80.3	82.9	66	67.9	1	3	270	0.00	29.961 
11:35	80.3	80.3	82.8	65	67.4	0	3	270	0.00	29.961 
11:40	80.5	80.5	83.2	66	68.1	0	2	270	0.00	29.961 
11:45	80.7	80.7	83.4	65	67.8	0	0	---	0.00	29.953 
11:50	80.9	80.9	83.7	65	68.0	0	0	---	0.00	29.953 
11:55	80.9	80.9	83.5	64	67.6	0	0	---	0.00	29.953 
12:00	80.9	80.9	83.7	65	68.0	0	0	---	0.00	29.948 
12:05	81.1	81.1	84.0	65	68.2	0	0	---	0.00	29.948 
12:10	81.1	81.1	84.0	65	68.2	0	1	270	0.00	29.948 
12:15	81.1	81.1	83.8	64	67.7	0	1	270	0.00	29.948 
12:20	81.2	81.2	84.0	64	67.8	0	1	270	0.00	29.948 
12:25	81.2	81.2	84.0	64	67.8	0	1	270	0.00	29.948 
12:30	81.1	81.1	83.8	64	67.7	0	2	270	0.00	29.961 
12:35	81.1	81.1	83.8	64	67.7	0	2	270	0.00	29.961 
12:40	81.1	81.1	84.0	65	68.2	0	2	270	0.00	29.961 
12:45	80.9	80.9	83.5	64	67.6	0	2	90	0.00	29.962 
12:50	80.9	80.9	83.7	65	68.0	0	1	90	0.00	29.962 
12:55	80.9	80.9	83.7	65	68.0	0	2	90	0.00	29.962 
13:00	80.9	80.9	83.5	64	67.6	0	3	292	0.00	29.960 
13:05	80.7	80.7	83.2	64	67.4	0	2	292	0.00	29.960 
13:10	80.9	80.9	83.7	65	68.0	0	3	270	0.00	29.960 
13:15	80.9	80.9	83.7	65	68.0	0	1	270	0.00	29.960 
13:20	80.9	80.9	83.7	65	68.0	1	4	270	0.00	29.960 
13:25	80.9	80.9	83.7	65	68.0	0	2	158	0.00	29.960 
13:30	80.7	80.7	83.2	64	67.4	1	3	270	0.00	29.957 
13:35	80.7	80.7	83.4	65	67.8	0	1	270	0.00	29.957 
13:40	80.7	80.7	83.4	65	67.8	0	1	270	0.00	29.957 
13:45	80.7	80.7	83.4	65	67.8	0	1	270	0.00	29.949 
13:50	80.5	80.5	82.9	64	67.2	1	3	270	0.00	29.949 
13:55	80.5	80.5	83.1	65	67.6	1	2	270	0.00	29.949 
14:00	80.3	80.3	82.9	66	67.9	1	2	270	0.00	29.949 
14:05	80.3	80.3	83.0	67	68.3	1	3	270	0.00	29.949 
14:10	80.3	80.3	83.0	67	68.3	1	3	270	0.00	29.949 
14:15	80.3	80.3	83.0	67	68.3	0	3	270	0.00	29.944 
14:20	80.3	80.3	82.9	66	67.9	1	3	270	0.00	29.944 
14:25	80.1	80.1	82.6	66	67.7	0	2	270	0.00	29.944 
14:30	80.1	80.1	82.9	68	68.6	0	2	270	0.00	29.940 
14:35	80.1	80.1	82.9	68	68.6	0	1	270	0.00	29.940 
14:40	79.9	79.9	82.7	69	68.8	0	2	270	0.00	29.940 
14:45	79.8	79.8	82.5	69	68.7	1	4	248	0.00	29.939 
14:50	79.6	79.6	82.2	69	68.5	0	2	248	0.00	29.939 
14:55	79.6	79.6	82.2	69	68.5	0	2	248	0.00	29.939 
15:00	79.6	79.6	82.3	70	68.9	0	1	248	0.00	29.930 
15:05	79.8	79.8	82.5	69	68.7	0	2	248	0.00	29.930 
15:10	79.6	79.6	82.1	68	68.1	1	3	248	0.00	29.930 
15:15	79.6	79.6	82.1	68	68.1	0	2	248	0.00	29.933 
15:20	79.6	79.6	82.1	68	68.1	0	2	248	0.00	29.933 
15:25	79.8	79.8	82.4	68	68.3	0	3	248	0.00	29.933 
15:30	79.9	79.9	82.6	68	68.4	0	2	248	0.00	29.930 
15:35	80.1	80.1	82.9	68	68.6	0	1	248	0.00	29.930 
15:40	80.3	80.3	83.0	67	68.3	0	1	248	0.00	29.930 
15:45	80.5	80.5	83.2	66	68.1	0	2	248	0.00	29.922 
15:50	80.5	80.5	83.1	65	67.6	0	3	248	0.00	29.922 
15:55	80.3	80.3	82.9	66	67.9	0	2	248	0.00	29.922 
16:00	80.3	80.3	82.9	66	67.9	0	2	248	0.00	29.929 
16:05	80.3	80.3	82.9	66	67.9	0	2	248	0.00	29.929 
16:10	80.3	80.3	82.9	66	67.9	0	2	248	0.00	29.929 
16:15	80.3	80.3	82.9	66	67.9	1	3	248	0.00	29.939 
16:20	80.1	80.1	82.5	65	67.2	1	4	248	0.00	29.939 
16:25	79.9	79.9	82.3	66	67.5	1	4	248	0.00	29.939 
16:30	79.8	79.8	82.3	67	67.8	1	3	248	0.00	29.944 
16:35	79.6	79.6	82.1	68	68.1	1	3	248	0.00	29.944 
16:40	79.6	79.6	82.1	68	68.1	1	3	248	0.00	29.944 
16:45	79.6	79.6	82.2	69	68.5	0	2	248	0.00	29.936 
16:50	79.4	79.4	81.9	69	68.3	0	2	248	0.00	29.936 
16:55	79.4	79.4	81.9	69	68.3	1	2	248	0.00	29.936 
17:00	79.2	79.2	81.7	70	68.5	1	3	248	0.00	29.933 
17:05	79.0	79.0	81.5	71	68.8	1	2	248	0.00	29.933 
17:10	78.8	78.8	81.3	72	69.0	1	2	248	0.00	29.933 
17:15	78.6	78.6	81.0	73	69.2	0	3	248	0.00	29.934 
17:20	78.5	78.5	80.9	73	69.1	1	2	248	0.00	29.934 
17:25	78.3	78.3	80.6	75	69.7	0	1	248	0.00	29.934 
17:30	77.9	77.9	80.0	76	69.7	0	1	248	0.00	29.926 
17:35	77.6	77.6	79.6	77	69.8	0	1	248	0.00	29.926 
17:40	77.4	77.4	79.3	79	70.4	0	1	248	0.00	29.926 
17:45	77.2	77.2	78.9	81	70.9	0	1	248	0.00	29.902 
17:50	76.8	76.8	78.2	82	70.9	0	1	248	0.00	29.902 
17:55	76.5	76.5	77.6	83	70.9	0	0	---	0.00	29.902 
18:00	76.3	76.3	77.2	83	70.7	0	0	---	0.00	29.905 
18:05	76.1	76.1	76.8	84	70.9	0	1	248	0.00	29.905 
18:10	76.0	76.0	76.6	85	71.2	0	1	248	0.00	29.905 
18:15	75.8	75.8	76.2	85	71.0	0	0	---	0.00	29.904 
18:20	75.8	75.8	76.2	85	71.0	0	1	248	0.00	29.904 
18:25	75.6	75.6	75.9	85	70.8	0	1	248	0.00	29.904 
18:30	75.6	75.6	75.9	85	70.8	0	1	248	0.00	29.903 
18:35	75.6	75.6	75.9	85	70.8	0	1	248	0.00	29.903 
18:40	75.6	75.6	75.9	85	70.8	0	2	248	0.00	29.903 
18:45	75.6	75.6	76.0	84	70.4	0	2	248	0.00	29.901 
18:50	75.8	75.8	76.6	81	69.5	1	3	270	0.00	29.901 
18:55	76.1	76.1	77.3	78	68.7	1	5	270	0.00	29.901 
19:00	76.3	76.3	77.6	78	68.9	1	4	225	0.00	29.900 
19:05	76.3	76.3	77.6	78	68.9	0	2	22	0.00	29.900 
19:10	76.1	76.1	77.5	75	67.6	0	2	22	0.00	29.900 
19:15	75.8	75.8	77.3	73	66.5	0	3	22	0.00	29.893 
19:20	75.6	75.6	77.1	72	65.9	0	4	248	0.00	29.893 
19:25	75.4	75.4	77.0	71	65.3	0	1	248	0.00	29.893 
19:30	75.1	75.1	76.9	69	64.2	0	1	248	0.00	29.893 
19:35	74.9	74.9	74.9	68	63.6	0	0	---	0.00	29.893 
19:40	74.7	74.7	74.7	67	63.0	0	1	248	0.00	29.893 
19:45	74.6	74.6	74.6	63	61.2	0	0	---	0.00	29.892 
19:50	74.4	74.4	74.4	63	61.0	0	0	---	0.00	29.892 
19:55	74.2	74.2	74.2	62	60.3	0	0	---	0.00	29.892 
20:00	74.0	74.0	74.0	62	60.1	0	0	---	0.00	29.893 
20:05	73.9	73.9	73.9	62	60.0	0	0	---	0.00	29.893 
20:10	73.9	73.9	73.9	63	60.5	0	0	---	0.00	29.893 
20:15	73.5	73.5	73.5	63	60.1	0	0	---	0.00	29.891 
20:20	73.2	73.2	73.2	64	60.3	0	0	---	0.00	29.891 
20:25	72.8	72.8	72.8	64	59.9	0	0	---	0.00	29.891 
20:30	72.5	72.5	72.5	65	60.0	0	0	---	0.00	29.901 
20:35	72.3	72.3	72.3	65	59.9	0	0	---	0.00	29.901 
20:40	72.1	72.1	72.1	66	60.1	0	0	---	0.00	29.901 
20:45	71.8	71.8	71.8	67	60.2	0	0	---	0.00	29.905 
20:50	71.8	71.8	71.8	67	60.2	0	0	---	0.00	29.905 
20:55	71.6	71.6	71.6	68	60.5	0	0	---	0.00	29.905 
21:00	71.6	71.6	71.6	69	60.9	0	1	248	0.00	29.908 
21:05	71.8	71.8	71.8	69	61.1	0	1	248	0.00	29.908 
21:10	71.8	71.8	71.8	70	61.5	0	1	248	0.00	29.908 
21:15	71.8	71.8	71.8	71	61.9	0	1	248	0.00	29.907 
21:20	71.8	71.8	71.8	71	61.9	0	1	248	0.00	29.907 
21:25	71.6	71.6	71.6	71	61.7	0	0	---	0.01	29.907 
21:30	71.6	71.6	71.6	72	62.1	0	0	---	0.00	29.906 
21:35	71.5	71.5	71.5	72	62.0	0	0	---	0.00	29.906 
21:40	71.3	71.3	71.3	72	61.8	0	0	---	0.00	29.906 
21:45	71.3	71.3	71.3	73	62.2	0	0	---	0.00	29.911 
21:50	70.9	70.9	70.9	74	62.2	0	0	---	0.00	29.911 
21:55	70.9	70.9	70.9	74	62.2	0	0	---	0.00	29.911 
22:00	70.8	70.8	70.8	75	62.5	0	0	---	0.00	29.916 
22:05	70.8	70.8	70.8	76	62.8	0	0	---	0.00	29.916 
22:10	70.8	70.8	70.8	76	62.8	0	0	---	0.00	29.916 
22:15	70.6	70.6	70.6	76	62.7	0	0	---	0.00	29.917 
22:20	70.6	70.6	70.6	77	63.0	0	0	---	0.00	29.917 
22:25	70.4	70.4	70.4	77	62.8	0	0	---	0.00	29.917 
22:30	70.4	70.4	70.4	77	62.8	0	0	---	0.00	29.913 
22:35	70.4	70.4	70.4	77	62.8	0	0	---	0.00	29.913 
22:40	70.3	70.3	70.3	78	63.1	0	0	---	0.00	29.913 
22:45	70.1	70.1	70.1	78	62.9	0	0	---	0.00	29.910 
22:50	69.9	69.9	69.9	79	63.1	0	0	---	0.00	29.910 
22:55	69.9	69.9	69.9	79	63.1	0	0	---	0.00	29.910 
23:00	69.9	69.9	69.9	80	63.4	0	0	---	0.00	29.913 
23:05	69.9	69.9	69.9	80	63.4	0	0	---	0.00	29.913 
23:10	69.9	69.9	69.9	80	63.4	0	0	---	0.00	29.913 
23:15	69.9	69.9	69.9	81	63.8	0	0	---	0.00	29.911 
23:20	69.9	69.9	69.9	81	63.8	0	0	---	0.00	29.911 
23:25	69.8	69.8	69.8	81	63.7	0	0	---	0.00	29.911 
23:30	69.8	69.8	69.8	81	63.7	0	0	---	0.00	29.908 
23:35	69.6	69.6	69.6	81	63.5	0	0	---	0.00	29.908 
23:40	69.6	69.6	69.6	82	63.9	0	0	---	0.00	29.908 
23:45	69.4	69.4	69.4	82	63.7	0	0	---	0.00	29.909 
23:50	69.4	69.4	69.4	82	63.7	0	0	---	0.00	29.909 
23:55	69.3	69.3	69.3	83	63.9	0	0	---	0.00	29.909 

CoCoRaHS
IN-AL-39
A2 Web Hosting
Creative Commons License
GoDaddy
search engine by freefind advanced

loaded 2018-11-13 22:29:04 • last modified 2010-11-18 10:43:29
Privacy PolicyDisclaimer
• wx.awcolley.com is powered by PmWiki v.2002016 •
• all content (unless otherwise noted) © 2018 A W Colley